Flight Track Log - Related Links

Times and Time Zones

All times are in EDT time to prevent confusion due to time zone crossing. See the N799CP flight status page for this flight to view local times or setup timezone preferences in your user account.

Time Position Orientation Groundspeed Altitude Reporting Facility
EDT Latitude Longitude Course Direction KTS MPH feet Rate Location/Type
Wed 06:33:01 PM 45.8086 -111.1869 329° Northwest 199 229 5,800  Level Salt Lake Center
Wed 06:33:32 PM 45.8369 -111.1683 25° Northeast 226 260 6,500 2,258 Climbing Salt Lake Center
Wed 06:34:34 PM 45.8547 -111.0581 77° East 280 322 9,300 2,661 Climbing Salt Lake Center
Wed 06:35:36 PM 45.8578 -110.9253 88° East 306 352 12,000 1,935 Climbing Salt Lake Center
Wed 06:36:38 PM 45.8622 -110.7756 88° East 374 430 13,300 1,931 Climbing Salt Lake Center
Wed 06:42:51 PM 45.7991 -109.7001 104° East 482 555 26,000 2,020 Climbing FlightAware ADS-B (KBIL)
Wed 06:43:10 PM 45.7849 -109.6403 117° Southeast 484 557 26,500 1,500 Climbing FlightAware ADS-B (KBIL)
Wed 06:43:39 PM 45.7534 -109.5680 122° Southeast 486 559 27,200 1,560 Climbing FlightAware ADS-B (KBIL)
Wed 06:44:00 PM 45.7279 -109.4974 110° East 493 567 27,800 1,610 Climbing FlightAware ADS-B (KBIL)
Wed 06:44:20 PM 45.7186 -109.4409 95° East 497 572 28,300 1,529 Climbing FlightAware ADS-B (KBIL)
Wed 06:44:51 PM 45.7178 -109.3317 90° East 500 575 29,100 1,322 Climbing FlightAware ADS-B (KBIL)
Wed 06:45:19 PM 45.7183 -109.2407 88° East 506 582 29,600 1,345 Climbing FlightAware ADS-B (KBIL)
Wed 06:45:49 PM 45.7203 -109.1414 88° East 510 587 30,400 1,355 Climbing FlightAware ADS-B (KBIL)
Wed 06:46:21 PM 45.7224 -109.0337 88° East 510 587 31,000 1,452 Climbing FlightAware ADS-B (KBIL)
Wed 06:46:51 PM 45.7245 -108.9268 88° East 510 587 31,900 1,900 Climbing FlightAware ADS-B (KBIL)
Wed 06:47:21 PM 45.7265 -108.8302 88° East 510 587 32,900 2,000 Climbing FlightAware ADS-B (KBIL)
Wed 06:47:51 PM 45.7284 -108.7274 88° East 508 585 33,900 1,500 Climbing FlightAware ADS-B (KBIL)
Wed 06:48:21 PM 45.7302 -108.6260 88° East 510 587 34,400 1,322 Climbing FlightAware ADS-B (KBIL)
Wed 06:48:50 PM 45.7320 -108.5264 88° East 510 587 35,200 1,474 Climbing FlightAware ADS-B (KBIL)
Wed 06:49:18 PM 45.7336 -108.4324 88° East 510 587 35,800 1,322 Climbing FlightAware ADS-B (KBIL)
Wed 06:49:49 PM 45.7350 -108.3243 88° East 510 587 36,500 1,524 Climbing FlightAware ADS-B (KBIL)
Wed 06:50:21 PM 45.7363 -108.2154 88° East 510 587 37,400 1,500 Climbing FlightAware ADS-B (KBIL)
Wed 06:50:49 PM 45.7375 -108.1196 88° East 510 587 38,000 1,424 Climbing FlightAware ADS-B (KBIL)
Wed 06:51:20 PM 45.7389 -108.0144 88° East 510 587 38,800 1,672 Climbing FlightAware ADS-B (KBIL)
Wed 06:51:50 PM 45.7399 -107.9133 88° East 506 582 39,700 1,322 Climbing FlightAware ADS-B (KBIL)
Wed 06:52:19 PM 45.7411 -107.8208 89° East 510 587 40,100 900 Climbing FlightAware ADS-B (KBIL)
Wed 06:52:50 PM 45.7423 -107.7150 89° East 510 587 40,600 857 Climbing FlightAware ADS-B (KBIL)
Wed 06:53:22 PM 45.7433 -107.6075 89° East 510 587 41,000 393 Climbing FlightAware ADS-B (KBIL)
Wed 06:53:51 PM 45.7439 -107.5118 89° East 510 587 41,000  Level FlightAware ADS-B (KBIL)
Wed 06:54:21 PM 45.7442 -107.4843 89° East 510 587 41,000  Level FlightAware ADS-B (KBIL)
Wed 06:54:49 PM 45.7455 -107.3076 89° East 510 587 41,000  Level FlightAware ADS-B (KBIL)
Wed 06:55:19 PM 45.7459 -107.2310 89° East 510 587 41,000  Level FlightAware ADS-B (KBIL)
Wed 06:55:49 PM 45.7463 -107.0984 89° East 510 587 41,000  Level FlightAware ADS-B (KBIL)
Wed 06:56:19 PM 45.7464 -107.0670 89° East 510 587 41,000  Level FlightAware ADS-B (KBIL)
Wed 06:56:50 PM 45.7467 -106.8815 89° East 510 587 41,000  Level FlightAware ADS-B (KBIL)
Wed 06:57:21 PM 45.7469 -106.7765 89° East 510 587 41,000  Level FlightAware ADS-B (KBIL)
Wed 06:57:49 PM 45.7469 -106.6855 89° East 510 587 41,000  Level FlightAware ADS-B (KBIL)
Wed 06:58:20 PM 45.7471 -106.5912 89° East 510 587 41,000  Level FlightAware ADS-B (KBIL)
Wed 06:58:50 PM 45.7471 -106.4658 89° East 510 587 41,000  Level FlightAware ADS-B (KBIL)
Wed 06:59:21 PM 45.7469 -106.3613 89° East 510 587 41,000  Level FlightAware ADS-B (KBIL)
Wed 06:59:49 PM 45.7469 -106.3369 89° East 510 587 41,000  Level FlightAware ADS-B (KBIL)
Wed 07:00:21 PM 45.7463 -106.1491 89° East 510 587 41,000  Level FlightAware ADS-B (KBIL)
Wed 07:00:47 PM 45.7459 -106.0655 89° East 510 587 41,000  Level FlightAware ADS-B (KBIL)
Wed 07:01:20 PM 45.7453 -105.9646 89° East 510 587 41,000  Level FlightAware ADS-B (KBIL)
Wed 07:01:48 PM 45.7443 -105.8500 89° East 510 587 41,000  Level FlightAware ADS-B (KBIL)
Wed 07:02:20 PM 45.7441 -105.8327 89° East 510 587 41,000  Level FlightAware ADS-B (KBIL)
Wed 07:03:32 PM 45.7428 -105.5081 89° East 525 604 41,000  Level Salt Lake Center
Wed 07:04:35 PM 45.7400 -105.3008 91° East 525 604 41,000  Level Salt Lake Center
Wed 07:05:37 PM 45.7381 -105.0950 91° East 524 603 41,000  Level Salt Lake Center
Wed 07:06:39 PM 45.7353 -104.8461 91° East 524 603 41,000  Level Salt Lake Center
Wed 07:07:40 PM 45.7294 -104.6386 92° East 523 602 41,000  Level Salt Lake Center
Wed 07:08:42 PM 45.7261 -104.4286 91° East 524 603 41,000  Level Salt Lake Center
Wed 07:09:45 PM 45.7219 -104.2169 92° East 527 606 41,000  Level Salt Lake Center
Wed 07:10:47 PM 45.7167 -104.0058 92° East 530 610 41,000  Level Salt Lake Center
Wed 07:11:49 PM 45.7111 -103.7986 92° East 530 610 41,000  Level Salt Lake Center
Wed 07:12:51 PM 45.7067 -103.5944 92° East 525 604 41,000  Level Salt Lake Center
Wed 07:13:53 PM 45.7000 -103.3492 92° East 522 601 41,000  Level Salt Lake Center
Wed 07:14:55 PM 45.6942 -103.1433 92° East 521 600 41,000  Level Salt Lake Center
Wed 07:15:50 PM 45.6900 -102.9808 92° East 522 601 41,000  Level Minneapolis Center
Wed 07:16:52 PM 45.6833 -102.7325 92° East 522 601 41,000  Level Minneapolis Center
Wed 07:17:54 PM 45.6753 -102.5494 94° East 522 601 41,000  Level Minneapolis Center
Wed 07:18:57 PM 45.6656 -102.3031 93° East 522 601 41,000  Level Minneapolis Center
Wed 07:19:59 PM 45.6578 -102.0983 93° East 519 597 41,000  Level Minneapolis Center
Wed 07:21:01 PM 45.6492 -101.8950 93° East 519 597 41,000  Level Minneapolis Center
Wed 07:22:03 PM 45.6419 -101.6886 93° East 519 597 41,000  Level Minneapolis Center
Wed 07:23:05 PM 45.6328 -101.4822 94° East 519 597 41,000  Level Minneapolis Center
Wed 07:24:07 PM 45.6222 -101.2772 94° East 519 597 41,000  Level Minneapolis Center
Wed 07:25:09 PM 45.6114 -101.0294 93° East 520 598 41,000  Level Minneapolis Center
Wed 07:26:12 PM 45.6006 -100.8247 94° East 520 598 41,000  Level Minneapolis Center
Wed 07:27:14 PM 45.5903 -100.6200 94° East 519 597 41,000  Level Minneapolis Center
Wed 07:28:16 PM 45.5792 -100.4161 94° East 518 596 41,000  Level Minneapolis Center
Wed 07:30:20 PM 45.5561 -100.0069 94° East 517 595 41,000  Level Minneapolis Center
Wed 07:31:22 PM 45.5436 -99.8006 95° East 517 595 41,000  Level Minneapolis Center
Wed 07:32:24 PM 45.5286 -99.5553 95° East 517 595 41,000  Level Minneapolis Center
Wed 07:33:26 PM 45.5164 -99.3506 95° East 517 595 41,000  Level Minneapolis Center
Wed 07:34:29 PM 45.5031 -99.1461 95° East 517 595 41,000  Level Minneapolis Center
Wed 07:35:31 PM 45.4883 -98.9403 96° East 517 595 41,000  Level Minneapolis Center
Wed 07:36:33 PM 45.4747 -98.7367 95° East 517 595 41,000  Level Minneapolis Center
Wed 07:37:36 PM 45.4597 -98.5325 96° East 518 596 41,000  Level Minneapolis Center
Wed 07:38:38 PM 45.4428 -98.2894 96° East 517 595 41,000  Level Minneapolis Center
Wed 07:39:40 PM 45.4283 -98.0903 96° East 513 590 41,000  Level Minneapolis Center
Wed 07:40:43 PM 45.4133 -97.8906 96° East 512 589 41,000  Level Minneapolis Center
Wed 07:41:45 PM 45.3975 -97.6928 96° East 509 586 41,000  Level Minneapolis Center
Wed 07:42:47 PM 45.3875 -97.4931 94° East 508 585 41,000  Level Minneapolis Center
Wed 07:43:49 PM 45.3994 -97.2961 85° East 504 580 41,000  Level Minneapolis Center
Wed 07:44:51 PM 45.4422 -97.0736 75° East 490 564 41,000 -457 Level Minneapolis Center
Wed 07:50:23 PM 45.7357 -96.1134 65° Northeast 470 541 38,000 -711 Descending FlightAware ADS-B (KSGS)
Wed 07:50:54 PM 45.7657 -96.0210 64° Northeast 465 535 36,700 -2,419 Descending FlightAware ADS-B (KSGS)
Wed 07:51:25 PM 45.7944 -95.9333 64° Northeast 462 532 35,500 -2,400 Descending FlightAware ADS-B (KSGS)
Wed 07:51:54 PM 45.8142 -95.8705 74° East 467 537 34,300 -2,486 Descending FlightAware ADS-B (KSGS)
Wed 07:52:35 PM 45.8155 -95.7249 104° East 487 560 32,600 -2,282 Descending FlightAware ADS-B (KSGS)
Wed 07:53:05 PM 45.8049 -95.6427 98° East 480 552 31,600 -2,136 Descending FlightAware ADS-B (KSGS)
Wed 07:53:34 PM 45.7932 -95.5348 99° East 489 563 30,500 -2,197 Descending FlightAware ADS-B (KSGS)
Wed 07:54:16 PM 45.7775 -95.4048 100° East 479 551 29,000 -2,050 Descending FlightAware ADS-B (KSGS)
Wed 07:55:34 PM 45.7490 -95.1764 100° East 456 525 26,400 -2,042 Descending FlightAware ADS-B (KSGS)
Wed 07:56:40 PM 45.7234 -94.9771 100° East 456 525 24,100 -2,063 Descending FlightAware ADS-B (KSGS)
Wed 07:57:10 PM 45.7140 -94.9043 100° East 428 493 23,100 -1,932 Descending FlightAware ADS-B (KSGS)
Wed 07:57:39 PM 45.7028 -94.8158 100° East 425 489 22,200 -1,627 Descending FlightAware ADS-B (KSGS)
Wed 07:58:09 PM 45.6941 -94.7484 100° East 425 489 21,500 -1,895 Descending FlightAware ADS-B (KSGS)
Wed 08:00:11 PM 45.6486 -94.4042 100° East 398 458 17,400 -1,987 Descending FlightAware ADS-B (KSGS)
Wed 08:00:40 PM 45.6385 -94.3286 101° East 395 455 16,500 -1,831 Descending FlightAware ADS-B (KSGS)
Wed 08:01:10 PM 45.6283 -94.2519 101° East 394 453 15,600 -1,700 Descending FlightAware ADS-B (KSGS)
Wed 08:01:40 PM 45.6179 -94.1753 100° East 388 447 14,800 -1,700 Descending FlightAware ADS-B (KSGS)
Wed 08:02:10 PM 45.6082 -94.1050 100° East 373 429 13,900 -1,672 Descending FlightAware ADS-B (KSGS)
Wed 08:02:41 PM 45.5983 -94.0324 100° East 350 403 13,100 -1,600 Descending FlightAware ADS-B (KSGS)
Wed 08:03:10 PM 45.5891 -93.9655 101° East 335 386 12,300 -1,424 Descending FlightAware ADS-B (KSGS)
Wed 08:03:40 PM 45.5815 -93.9102 101° East 322 371 11,700 -1,400 Descending FlightAware ADS-B (KSGS)
Wed 08:04:10 PM 45.5719 -93.8403 100° East 310 357 10,900 -1,500 Descending FlightAware ADS-B (KSGS)
Wed 08:04:40 PM 45.5637 -93.7824 101° East 298 343 10,200 -1,333 Descending FlightAware ADS-B (KSGS)
Wed 08:04:55 PM 45.5599 -93.7546 101° East 299 344 9,900 -1,400 Descending FlightAware ADS-B (KSGS)
Wed 08:05:10 PM 45.5557 -93.7251 101° East 298 343 9,500 -1,400 Descending FlightAware ADS-B (KSGS)
Wed 08:05:25 PM 45.5515 -93.6944 101° East 291 335 9,200 -1,231 Descending FlightAware ADS-B (KSGS)
Wed 08:05:49 PM 45.5456 -93.6524 101° East 285 328 8,700 -1,200 Descending FlightAware ADS-B (KSGS)
Wed 08:06:05 PM 45.5408 -93.6213 104° East 281 323 8,400 -1,143 Descending FlightAware ADS-B (KSGS)
Wed 08:06:10 PM 45.5387 -93.6126 110° East 280 322 8,300 -1,200 Descending FlightAware ADS-B (KSGS)
Wed 08:06:15 PM 45.5359 -93.6042 116° Southeast 283 326 8,200 -1,800 Descending FlightAware ADS-B (KSGS)
Wed 08:06:20 PM 45.5325 -93.5962 122° Southeast 286 329 8,000 -1,800 Descending FlightAware ADS-B (KSGS)
Wed 08:06:25 PM 45.5283 -93.5884 129° Southeast 286 329 7,900 -1,800 Descending FlightAware ADS-B (KSGS)
Wed 08:06:30 PM 45.5240 -93.5822 135° Southeast 287 330 7,700 -1,800 Descending FlightAware ADS-B (KSGS)
Wed 08:06:35 PM 45.5185 -93.5757 141° Southeast 286 329 7,600 -1,800 Descending FlightAware ADS-B (KSGS)
Wed 08:06:40 PM 45.5127 -93.5702 148° Southeast 286 329 7,400 -2,000 Descending FlightAware ADS-B (KSGS)
Wed 08:06:50 PM 45.5013 -93.5624 157° South 287 330 7,100 -1,680 Descending FlightAware ADS-B (KSGS)
Wed 08:07:05 PM 45.4826 -93.5525 159° South 287 330 6,700 -1,600 Descending FlightAware ADS-B (KSGS)
Wed 08:07:20 PM 45.4652 -93.5432 159° South 286 329 6,300 -1,000 Descending FlightAware ADS-B (KSGS)
Wed 08:07:47 PM 45.4315 -93.5252 159° South 280 322 6,000 -360 Descending FlightAware ADS-B (KSGS)
Wed 08:08:10 PM 45.4055 -93.5113 159° South 276 318 6,000  Level FlightAware ADS-B (KSGS)
Wed 08:08:26 PM 45.3860 -93.4981 143° Southeast 269 310 6,000  Level FlightAware ADS-B (KSGS)
Wed 08:08:30 PM 45.3816 -93.4924 136° Southeast 269 310 6,000  Level FlightAware ADS-B (KSGS)
Wed 08:08:45 PM 45.3686 -93.4733 133° Southeast 269 310 6,000  Level FlightAware ADS-B (KSGS)
Wed 08:09:05 PM 45.3515 -93.4472 133° Southeast 268 308 6,000  Level FlightAware ADS-B (KSGS)
Wed 08:09:25 PM 45.3355 -93.4230 132° Southeast 268 308 6,000  Level FlightAware ADS-B (KSGS)
Wed 08:09:45 PM 45.3179 -93.3958 132° Southeast 269 310 6,000  Level FlightAware ADS-B (KSGS)
Wed 08:10:05 PM 45.3012 -93.3705 133° Southeast 268 308 6,000 -150 Level FlightAware ADS-B (KSGS)
Wed 08:10:25 PM 45.2837 -93.3440 132° Southeast 268 308 5,900 -686 Descending FlightAware ADS-B (KSGS)
Wed 08:10:40 PM 45.2709 -93.3245 132° Southeast 271 312 5,600 -1,200 Descending FlightAware ADS-B (KSGS)
Wed 08:10:55 PM 45.2581 -93.3051 133° Southeast 268 308 5,300 -1,400 Descending FlightAware ADS-B (KSGS)
Wed 08:11:10 PM 45.2452 -93.2857 133° Southeast 266 306 4,900 -1,200 Descending FlightAware ADS-B (KSGS)
Wed 08:11:25 PM 45.2335 -93.2680 133° Southeast 264 304 4,700 -1,200 Descending FlightAware ADS-B (KSGS)
Wed 08:11:40 PM 45.2208 -93.2487 133° Southeast 263 303 4,300 -1,355 Descending FlightAware ADS-B (KSGS)
Wed 08:11:56 PM 45.2079 -93.2292 133° Southeast 259 298 4,000 -514 Descending FlightAware ADS-B (KSGS)
Wed 08:12:15 PM 45.1927 -93.2059 132° Southeast 239 275 4,000  Level FlightAware ADS-B (KSGS)
Wed 08:12:36 PM 45.1776 -93.1831 133° Southeast 225 259 4,000  Level FlightAware ADS-B (KSGS)
Wed 08:12:55 PM 45.1635 -93.1625 133° Southeast 215 247 4,000  Level FlightAware ADS-B (KSGS)
Wed 08:13:05 PM 45.1562 -93.1533 141° Southeast 217 250 4,000 -200 Level FlightAware ADS-B (KSGS)
Wed 08:13:25 PM 45.1408 -93.1353 140° Southeast 217 250 3,900 -514 Descending FlightAware ADS-B (KSGS)
Wed 08:13:40 PM 45.1287 -93.1214 141° Southeast 224 258 3,700 -1,000 Descending FlightAware ADS-B (KSGS)
Wed 08:13:55 PM 45.1175 -93.1088 141° Southeast 223 257 3,400 -1,000 Descending FlightAware ADS-B (KSGS)
Wed 08:14:10 PM 45.1047 -93.0944 140° Southeast 223 257 3,200 -1,000 Descending FlightAware ADS-B (KSGS)
Wed 08:14:25 PM 45.0916 -93.0802 146° Southeast 226 260 2,900 -1,161 Descending FlightAware ADS-B (KSGS)
Wed 08:14:41 PM 45.0782 -93.0695 153° Southeast 222 255 2,600 -686 Descending FlightAware ADS-B (KSGS)
Wed 08:15:00 PM 45.0599 -93.0590 160° South 209 241 2,500 -150 Descending FlightAware ADS-B (KSGS)
Wed 08:15:21 PM 45.0417 -93.0509 163° South 196 226 2,500  Level FlightAware ADS-B (KSGS)
Wed 08:15:40 PM 45.0255 -93.0437 162° South 182 209 2,500  Level FlightAware ADS-B (KSGS)
Wed 08:16:00 PM 45.0102 -93.0371 162° South 167 192 2,500  Level FlightAware ADS-B (KSGS)
Wed 08:16:20 PM 44.9956 -93.0288 157° South 169 194 2,500  Level FlightAware ADS-B (KSGS)
Wed 08:16:41 PM 44.9806 -93.0211 161° South 172 198 2,500  Level FlightAware ADS-B (KSGS)
Wed 08:17:01 PM 44.9658 -93.0138 160° South 169 194 2,500 -154 Level FlightAware ADS-B (KSGS)
Wed 08:17:20 PM 44.9512 -93.0067 160° South 164 189 2,400 -308 Descending FlightAware ADS-B (KSGS)
Wed 08:17:40 PM 44.9366 -92.9991 159° South 169 194 2,300 -343 Descending FlightAware ADS-B (KSGS)
Wed 08:17:55 PM 44.9254 -92.9925 156° South 172 198 2,200 -514 Descending FlightAware ADS-B (KSGS)
Wed 08:18:15 PM 44.9113 -92.9836 157° South 164 189 2,000 -480 Descending FlightAware ADS-B (KSGS)
Wed 08:18:20 PM 44.9080 -92.9825 169° South 164 189 2,000  Level FlightAware ADS-B (KSGS)
Wed 08:18:26 PM 44.9035 -92.9828 192° South 168 193 2,000  Level FlightAware ADS-B (KSGS)
Wed 08:18:30 PM 44.9003 -92.9850 214° Southwest 173 199 2,000 -600 Level FlightAware ADS-B (KSGS)
Wed 08:18:36 PM 44.8971 -92.9895 232° Southwest 175 201 1,900 -545 Descending FlightAware ADS-B (KSGS)
Wed 08:18:41 PM 44.8953 -92.9944 247° West 168 193 1,900 -667 Level FlightAware ADS-B (KSGS)
Wed 08:18:45 PM 44.8945 -92.9986 260° West 160 184 1,800 -1,500 Descending FlightAware ADS-B (KSGS)

Login

Don't have an account? Register now (free) for customized features, flight alerts, and more!